createdAt,value
2019-05-28T00:00:56.328Z,1.1
2019-05-28T00:02:05.923Z,1.5
2019-05-28T00:03:15.509Z,0.7
2019-05-28T00:04:25.105Z,1
2019-05-28T00:05:34.716Z,1.1
2019-05-28T00:06:44.314Z,1.2
2019-05-28T00:07:53.892Z,1
2019-05-28T00:09:03.488Z,1
2019-05-28T00:10:13.183Z,1.5
2019-05-28T00:11:22.755Z,1.4
2019-05-28T00:12:32.343Z,1.2
2019-05-28T00:13:41.938Z,0.9
2019-05-28T00:14:51.521Z,1.7
2019-05-28T00:16:01.139Z,1.2
2019-05-28T00:17:10.728Z,1.2
2019-05-28T00:18:20.316Z,1.1
2019-05-28T00:19:29.929Z,1.2
2019-05-28T00:20:39.528Z,1.4
2019-05-28T00:21:49.109Z,1.3
2019-05-28T00:22:58.693Z,1.3
2019-05-28T00:24:08.280Z,1
2019-05-28T00:25:17.888Z,1.3
2019-05-28T00:26:27.502Z,1.2
2019-05-28T00:27:38.081Z,1.2
2019-05-28T00:28:47.673Z,1.4
2019-05-28T00:29:57.258Z,1.1
2019-05-28T00:31:06.874Z,0.8
2019-05-28T00:32:16.483Z,1.7
2019-05-28T00:33:26.066Z,0.9
2019-05-28T00:34:35.670Z,1.3
2019-05-28T00:35:45.283Z,1
2019-05-28T00:36:54.860Z,1.2
2019-05-28T00:38:04.457Z,1.1
2019-05-28T00:39:14.044Z,1.5
2019-05-28T00:40:23.649Z,1.3
2019-05-28T00:41:33.254Z,1.3
2019-05-28T00:42:42.837Z,1.2
2019-05-28T00:43:52.420Z,1.1
2019-05-28T00:45:02.011Z,1.2
2019-05-28T00:46:11.621Z,1.3
2019-05-28T00:47:21.208Z,1.4
2019-05-28T00:48:30.790Z,0.8
2019-05-28T00:49:40.385Z,1
2019-05-28T00:50:50.010Z,1.3
2019-05-28T00:51:59.627Z,1
2019-05-28T00:53:09.209Z,1.3
2019-05-28T00:54:18.797Z,1.2
2019-05-28T00:55:28.374Z,1
2019-05-28T00:56:38.005Z,1
2019-05-28T00:57:47.597Z,1.3
2019-05-28T00:58:57.203Z,1
2019-05-28T01:00:06.795Z,1.4
2019-05-28T01:01:16.523Z,1.5
2019-05-28T01:02:26.119Z,1.3
2019-05-28T01:03:35.705Z,1.6
2019-05-28T01:04:45.310Z,1
2019-05-28T01:05:54.874Z,1.3
2019-05-28T01:07:04.496Z,1.4
2019-05-28T01:08:14.091Z,1.1
2019-05-28T01:09:23.680Z,1.2
2019-05-28T01:10:33.269Z,1.7
2019-05-28T01:11:42.888Z,1.1
2019-05-28T01:12:52.481Z,1
2019-05-28T01:14:02.067Z,1
2019-05-28T01:15:11.653Z,1.6
2019-05-28T01:16:21.401Z,1.2
2019-05-28T01:17:30.983Z,1.1
2019-05-28T01:18:40.574Z,1.2
2019-05-28T01:19:50.183Z,1.3
2019-05-28T01:20:59.769Z,1.9
2019-05-28T01:22:09.395Z,1.3
2019-05-28T01:23:18.993Z,1.6
2019-05-28T01:24:28.580Z,1.1
2019-05-28T01:25:38.166Z,1.1
2019-05-28T01:26:47.795Z,1.2
2019-05-28T01:27:57.395Z,1.2
2019-05-28T01:29:07.016Z,1.3
2019-05-28T01:30:16.610Z,1.3
2019-05-28T01:31:26.232Z,1.5
2019-05-28T01:32:35.821Z,1.1
2019-05-28T01:33:45.419Z,1.1
2019-05-28T01:34:55.003Z,0.9
2019-05-28T01:36:04.599Z,1.6
2019-05-28T01:37:14.199Z,1.3
2019-05-28T01:38:23.785Z,1.3
2019-05-28T01:39:33.374Z,1.4
2019-05-28T01:40:42.986Z,1.1
2019-05-28T01:41:52.594Z,1.1
2019-05-28T01:43:02.176Z,1.2
2019-05-28T01:44:11.761Z,1.1
2019-05-28T01:45:21.335Z,0.7
2019-05-28T01:46:30.928Z,1.2
2019-05-28T01:47:40.548Z,1.3
2019-05-28T01:48:50.133Z,1.1
2019-05-28T01:49:59.712Z,0.9
2019-05-28T01:51:09.317Z,1
2019-05-28T01:52:18.929Z,0.9
2019-05-28T01:53:28.511Z,1.7
2019-05-28T01:54:38.096Z,1.2
2019-05-28T01:55:47.681Z,1.1
2019-05-28T01:56:57.300Z,1.4
2019-05-28T01:58:06.884Z,0.8
2019-05-28T01:59:16.472Z,0.9
2019-05-28T02:00:26.061Z,1.1
2019-05-28T02:01:35.646Z,1.2
2019-05-28T02:02:45.460Z,1.1
2019-05-28T02:03:54.864Z,1.2
2019-05-28T02:05:04.451Z,0.9
2019-05-28T02:06:14.039Z,1.2
2019-05-28T02:07:23.655Z,0.7
2019-05-28T02:08:33.254Z,1.4
2019-05-28T02:09:42.825Z,1.3
2019-05-28T02:10:52.408Z,1
2019-05-28T02:12:02.039Z,0.9
2019-05-28T02:13:10.619Z,0.9
2019-05-28T02:14:20.252Z,0.7
2019-05-28T02:15:29.844Z,1.3
2019-05-28T02:16:39.428Z,1.1
2019-05-28T02:17:49.041Z,0.9
2019-05-28T02:18:58.652Z,0.8
2019-05-28T02:20:08.232Z,0.9
2019-05-28T02:21:17.836Z,1.1
2019-05-28T02:22:27.463Z,0.9
2019-05-28T02:23:37.045Z,1.1
2019-05-28T02:24:46.645Z,1
2019-05-28T02:25:56.228Z,0.9
2019-05-28T02:27:05.851Z,0.8
2019-05-28T02:28:15.439Z,0.9
2019-05-28T02:29:25.018Z,1.2
2019-05-28T02:30:34.604Z,0.8
2019-05-28T02:31:44.188Z,0.7
2019-05-28T02:32:53.803Z,0.8
2019-05-28T02:34:03.389Z,1
2019-05-28T02:35:12.989Z,1.1
2019-05-28T02:36:22.572Z,0.7
2019-05-28T02:37:32.187Z,1
2019-05-28T02:38:41.770Z,0.9
2019-05-28T02:39:51.363Z,0.8
2019-05-28T02:41:00.943Z,1.1
2019-05-28T02:42:10.706Z,0.6
2019-05-28T02:43:20.283Z,1
2019-05-28T02:44:29.888Z,0.9
2019-05-28T02:45:39.530Z,1
2019-05-28T02:46:49.117Z,0.9
2019-05-28T02:47:58.726Z,0.7
2019-05-28T02:49:08.317Z,0.9
2019-05-28T02:50:17.900Z,1.1
2019-05-28T02:51:27.484Z,0.8
2019-05-28T02:52:37.078Z,1.3
2019-05-28T02:53:46.664Z,0.9
2019-05-28T02:54:56.307Z,1
2019-05-28T02:56:05.892Z,0.9
2019-05-28T02:57:15.596Z,0.7
2019-05-28T02:58:25.202Z,0.8
2019-05-28T02:59:34.792Z,1
2019-05-28T03:00:44.376Z,1
2019-05-28T03:01:53.966Z,0.9
2019-05-28T03:03:03.587Z,0.8
2019-05-28T03:04:13.173Z,0.7
2019-05-28T03:05:22.757Z,0.8
2019-05-28T03:06:32.337Z,0.6
2019-05-28T03:07:41.935Z,1
2019-05-28T03:08:51.526Z,0.8
2019-05-28T03:10:01.103Z,0.9
2019-05-28T03:11:10.682Z,0.8
2019-05-28T03:12:20.273Z,1
2019-05-28T03:13:29.893Z,1
2019-05-28T03:14:39.483Z,0.6
2019-05-28T03:15:49.083Z,1.3
2019-05-28T03:16:58.680Z,0.8
2019-05-28T03:18:08.305Z,0.7
2019-05-28T03:19:17.884Z,1.4
2019-05-28T03:20:27.496Z,1
2019-05-28T03:21:37.091Z,0.9
2019-05-28T03:22:46.693Z,1.1
2019-05-28T03:23:56.283Z,0.9
2019-05-28T03:25:06.866Z,0.8
2019-05-28T03:26:16.470Z,1
2019-05-28T03:27:27.042Z,0.8
2019-05-28T03:28:36.644Z,1
2019-05-28T03:29:46.233Z,1
2019-05-28T03:30:55.829Z,0.7
2019-05-28T03:32:08.297Z,1
2019-05-28T03:33:15.983Z,0.9
2019-05-28T03:34:25.593Z,0.8
2019-05-28T03:35:35.156Z,1
2019-05-28T03:36:44.763Z,1.1
2019-05-28T03:37:54.399Z,1.5
2019-05-28T03:39:04.007Z,1
2019-05-28T03:40:13.590Z,0.6
2019-05-28T03:41:23.185Z,0.6
2019-05-28T03:42:32.772Z,0.9
2019-05-28T03:43:42.420Z,1
2019-05-28T03:44:52.006Z,1.1
2019-05-28T03:46:01.600Z,1
2019-05-28T03:47:11.227Z,1
2019-05-28T03:48:20.840Z,0.7
2019-05-28T03:49:30.440Z,0.6
2019-05-28T03:50:40.033Z,0.8
2019-05-28T03:51:49.645Z,0.7
2019-05-28T03:52:59.209Z,1
2019-05-28T03:54:08.815Z,0.9
2019-05-28T03:55:18.408Z,1
2019-05-28T03:56:27.988Z,0.8
2019-05-28T03:57:37.576Z,0.5
2019-05-28T03:58:47.299Z,0.9
2019-05-28T03:59:57.901Z,0.9
2019-05-28T04:01:07.455Z,0.9
2019-05-28T04:02:23.394Z,1.1
2019-05-28T04:03:27.579Z,1.3
2019-05-28T04:04:37.206Z,0.8
2019-05-28T04:05:46.821Z,0.6
2019-05-28T04:06:56.406Z,1.1
2019-05-28T04:08:06.019Z,0.8
2019-05-28T04:09:15.785Z,0.8
2019-05-28T04:10:25.368Z,0.6
2019-05-28T04:11:44.171Z,0.9
2019-05-28T04:12:45.495Z,0.9
2019-05-28T04:13:55.197Z,0.9
2019-05-28T04:15:04.817Z,1
2019-05-28T04:16:14.404Z,0.8
2019-05-28T04:17:24.004Z,0.9
2019-05-28T04:18:33.581Z,1
2019-05-28T04:19:43.230Z,0.9
2019-05-28T04:20:52.820Z,0.9
2019-05-28T04:22:02.411Z,0.8
2019-05-28T04:23:12.012Z,1
2019-05-28T04:24:21.596Z,0.6
2019-05-28T04:25:31.214Z,0.7
2019-05-28T04:26:41.043Z,0.9
2019-05-28T04:27:50.648Z,0.9
2019-05-28T04:29:00.251Z,0.8
2019-05-28T04:30:09.860Z,1
2019-05-28T04:31:19.445Z,0.9
2019-05-28T04:32:39.727Z,1.1
2019-05-28T04:33:39.627Z,0.9
2019-05-28T04:34:49.217Z,0.8
2019-05-28T04:35:58.837Z,0.9
2019-05-28T04:37:08.422Z,0.8
2019-05-28T04:38:18.436Z,1.1
2019-05-28T04:39:28.376Z,0.8
2019-05-28T04:40:37.982Z,0.8
2019-05-28T04:41:47.600Z,0.6
2019-05-28T04:42:57.336Z,0.9
2019-05-28T04:44:06.917Z,1
2019-05-28T04:45:16.501Z,1.2
2019-05-28T04:46:26.114Z,1.1
2019-05-28T04:47:35.719Z,1.1
2019-05-28T04:48:45.327Z,1
2019-05-28T04:49:54.919Z,1.1
2019-05-28T04:51:04.531Z,0.8
2019-05-28T04:52:14.114Z,0.9
2019-05-28T04:53:23.705Z,1.1
2019-05-28T04:54:33.291Z,1.2
2019-05-28T04:55:42.904Z,0.9
2019-05-28T04:56:52.482Z,0.8
2019-05-28T04:58:02.078Z,0.9
2019-05-28T04:59:11.671Z,1
2019-05-28T05:00:21.274Z,0.8
2019-05-28T05:01:30.876Z,0.7
2019-05-28T05:02:55.499Z,0.9
2019-05-28T05:03:51.039Z,0.7
2019-05-28T05:05:00.625Z,1
2019-05-28T05:06:10.238Z,0.6
2019-05-28T05:07:19.820Z,0.6
2019-05-28T05:08:29.409Z,0.8
2019-05-28T05:09:39.050Z,0.7
2019-05-28T05:10:48.609Z,0.9
2019-05-28T05:11:58.200Z,0.9
2019-05-28T05:13:07.795Z,1
2019-05-28T05:14:18.371Z,1
2019-05-28T05:15:27.960Z,0.8
2019-05-28T05:16:37.572Z,0.8
2019-05-28T05:17:47.170Z,0.8
2019-05-28T05:18:56.746Z,0.8
2019-05-28T05:20:06.330Z,3
2019-05-28T05:21:15.948Z,2.4
2019-05-28T05:22:25.531Z,2.1
2019-05-28T05:23:35.106Z,1
2019-05-28T05:24:44.691Z,0.6
2019-05-28T05:25:54.315Z,1
2019-05-28T05:27:03.897Z,0.9
2019-05-28T05:28:13.498Z,0.7
2019-05-28T05:29:23.079Z,0.8
2019-05-28T05:30:32.659Z,0.8
2019-05-28T05:31:42.308Z,0.8
2019-05-28T05:32:51.888Z,0.7
2019-05-28T05:34:01.466Z,0.8
2019-05-28T05:35:11.067Z,0.8
2019-05-28T05:36:20.695Z,0.6
2019-05-28T05:37:30.299Z,0.6
2019-05-28T05:38:39.934Z,0.7
2019-05-28T05:39:49.515Z,0.7
2019-05-28T05:40:59.119Z,0.6
2019-05-28T05:42:08.697Z,1.1
2019-05-28T05:43:18.296Z,1
2019-05-28T05:44:27.879Z,0.5
2019-05-28T05:45:37.487Z,0.9
2019-05-28T05:46:47.077Z,0.9
2019-05-28T05:47:56.666Z,0.8
2019-05-28T05:49:06.275Z,0.7
2019-05-28T05:50:15.864Z,0.9
2019-05-28T05:51:26.858Z,0.9
2019-05-28T05:52:36.445Z,0.8
2019-05-28T05:53:46.036Z,0.7
2019-05-28T05:54:55.636Z,0.8
2019-05-28T05:56:05.238Z,0.7
2019-05-28T05:57:14.823Z,0.7
2019-05-28T05:58:24.406Z,0.7
2019-05-28T05:59:33.980Z,1
2019-05-28T06:00:43.571Z,0.5
2019-05-28T06:01:53.185Z,0.8
2019-05-28T06:03:02.779Z,0.8
2019-05-28T06:04:12.358Z,0.9
2019-05-28T06:05:21.947Z,0.5
2019-05-28T06:06:31.568Z,0.6
2019-05-28T06:07:42.179Z,0.7
2019-05-28T06:08:51.759Z,0.9
2019-05-28T06:10:01.352Z,0.7
2019-05-28T06:11:10.966Z,0.6
2019-05-28T06:12:20.551Z,0.6
2019-05-28T06:13:30.143Z,0.7
2019-05-28T06:14:39.711Z,0.6
2019-05-28T06:15:49.293Z,0.7
2019-05-28T06:16:58.934Z,0.9
2019-05-28T06:18:08.547Z,0.9
2019-05-28T06:19:18.128Z,0.6
2019-05-28T06:20:27.715Z,0.8
2019-05-28T06:21:37.333Z,0.6
2019-05-28T06:22:46.916Z,0.9
2019-05-28T06:23:56.515Z,0.7
2019-05-28T06:25:06.141Z,0.7
2019-05-28T06:26:15.750Z,0.8
2019-05-28T06:27:25.321Z,0.7
2019-05-28T06:28:34.913Z,0.7
2019-05-28T06:29:44.498Z,0.7
2019-05-28T06:30:54.087Z,0.7
2019-05-28T06:32:03.744Z,0.6
2019-05-28T06:33:13.313Z,0.5
2019-05-28T06:34:22.894Z,0.5
2019-05-28T06:35:32.472Z,0.6
2019-05-28T06:36:42.088Z,0.4
2019-05-28T06:37:51.676Z,0.4
2019-05-28T06:39:01.254Z,0.7
2019-05-28T06:40:10.835Z,0.7
2019-05-28T06:41:20.469Z,0.6
2019-05-28T06:42:30.052Z,0.6
2019-05-28T06:43:39.637Z,0.6
2019-05-28T06:44:49.411Z,0.5
2019-05-28T06:45:58.801Z,0.6
2019-05-28T06:47:08.408Z,0.4
2019-05-28T06:48:17.993Z,0.5
2019-05-28T06:49:27.576Z,0.5
2019-05-28T06:50:37.155Z,0.5
2019-05-28T06:51:46.778Z,0.8
2019-05-28T06:52:56.373Z,0.7
2019-05-28T06:54:05.964Z,0.7
2019-05-28T06:55:15.552Z,0.6
2019-05-28T06:56:25.156Z,0.6
2019-05-28T06:57:34.734Z,0.7
2019-05-28T06:58:44.312Z,0.7
2019-05-28T06:59:53.902Z,1
2019-05-28T07:01:04.047Z,1.1
2019-05-28T07:02:13.140Z,0.8
2019-05-28T07:03:22.716Z,1
2019-05-28T07:04:33.204Z,0.8
2019-05-28T07:05:42.840Z,0.7
2019-05-28T07:06:52.453Z,0.6
2019-05-28T07:08:02.056Z,0.7
2019-05-28T07:09:12.610Z,0.7
2019-05-28T07:10:22.204Z,0.7
2019-05-28T07:11:31.784Z,0.6
2019-05-28T07:12:41.398Z,0.7
2019-05-28T07:13:50.982Z,0.7
2019-05-28T07:15:00.580Z,0.9
2019-05-28T07:16:10.160Z,0.6
2019-05-28T07:17:19.800Z,0.7
2019-05-28T07:18:29.405Z,0.9
2019-05-28T07:19:38.981Z,0.9
2019-05-28T07:20:48.570Z,0.8
2019-05-28T07:21:58.159Z,0.5
2019-05-28T07:23:07.771Z,0.7
2019-05-28T07:24:17.355Z,0.6
2019-05-28T07:25:26.980Z,0.8
2019-05-28T07:26:36.543Z,0.8
2019-05-28T07:27:46.165Z,0.8
2019-05-28T07:28:55.752Z,1.1
2019-05-28T07:30:05.345Z,0.6
2019-05-28T07:31:14.917Z,0.6
2019-05-28T07:32:24.509Z,0.7
2019-05-28T07:33:35.636Z,0.8
2019-05-28T07:34:44.710Z,0.9
2019-05-28T07:35:54.294Z,0.9
2019-05-28T07:37:03.884Z,1
2019-05-28T07:38:13.499Z,1.2
2019-05-28T07:39:23.086Z,0.9
2019-05-28T07:40:32.657Z,0.7
2019-05-28T07:41:42.235Z,1.1
2019-05-28T07:42:51.990Z,1.3
2019-05-28T07:44:01.580Z,0.8
2019-05-28T07:45:11.178Z,0.9
2019-05-28T07:46:20.759Z,0.9
2019-05-28T07:47:30.341Z,0.9
2019-05-28T07:48:39.964Z,0.8
2019-05-28T07:49:49.547Z,1.1
2019-05-28T07:50:59.151Z,1.2
2019-05-28T07:52:08.733Z,1
2019-05-28T07:53:18.401Z,1.4
2019-05-28T07:54:27.977Z,0.7
2019-05-28T07:55:37.567Z,1
2019-05-28T07:56:47.144Z,0.9
2019-05-28T07:57:56.895Z,1.1
2019-05-28T07:59:06.482Z,1
2019-05-28T08:00:16.104Z,1.2
2019-05-28T08:01:25.693Z,1
2019-05-28T08:02:35.267Z,1.1
2019-05-28T08:03:44.905Z,1.2
2019-05-28T08:04:54.464Z,0.8
2019-05-28T08:06:04.060Z,0.9
2019-05-28T08:07:13.653Z,1
2019-05-28T08:08:23.257Z,1.1
2019-05-28T08:09:32.834Z,1
2019-05-28T08:10:42.438Z,1.1
2019-05-28T08:11:52.028Z,1
2019-05-28T08:13:01.616Z,1
2019-05-28T08:14:11.203Z,1
2019-05-28T08:15:20.811Z,1.1
2019-05-28T08:16:30.383Z,1
2019-05-28T08:17:39.966Z,0.9
2019-05-28T08:18:49.554Z,1.3
2019-05-28T08:19:59.160Z,1.1
2019-05-28T08:21:08.746Z,1.2
2019-05-28T08:22:18.312Z,1.1
2019-05-28T08:23:27.909Z,1.1
2019-05-28T08:24:37.492Z,1
2019-05-28T08:25:48.071Z,0.6
2019-05-28T08:26:57.637Z,0.9
2019-05-28T08:28:19.067Z,1.3
2019-05-28T08:29:17.824Z,1
2019-05-28T08:30:27.551Z,1
2019-05-28T08:31:37.129Z,1.1
2019-05-28T08:32:46.705Z,1.2
2019-05-28T08:33:56.290Z,1.1
2019-05-28T08:35:06.394Z,0.9
2019-05-28T08:36:15.446Z,1.2
2019-05-28T08:37:25.028Z,1
2019-05-28T08:38:34.605Z,1
2019-05-28T08:39:44.193Z,1.2
2019-05-28T08:40:53.839Z,1.1
2019-05-28T08:42:03.409Z,0.9
2019-05-28T08:43:13.008Z,1
2019-05-28T08:44:22.594Z,1.2
2019-05-28T08:45:32.170Z,1.2
2019-05-28T08:46:41.782Z,1
2019-05-28T08:47:51.369Z,1.1
2019-05-28T08:49:00.963Z,0.8
2019-05-28T08:50:10.560Z,0.8
2019-05-28T08:51:20.158Z,0.6
2019-05-28T08:52:29.743Z,0.7
2019-05-28T08:53:39.330Z,0.8
2019-05-28T08:54:51.110Z,0.6
2019-05-28T08:55:59.533Z,0.7
2019-05-28T08:57:09.140Z,0.9
2019-05-28T08:58:18.737Z,0.9
2019-05-28T08:59:28.313Z,0.6
2019-05-28T09:00:38.049Z,0.5
2019-05-28T09:01:47.666Z,0.8
2019-05-28T09:02:57.301Z,0.9
2019-05-28T09:04:06.880Z,0.8
2019-05-28T09:05:25.509Z,0.9
2019-05-28T09:06:27.421Z,1
2019-05-28T09:07:36.718Z,1
2019-05-28T09:08:46.304Z,0.9
2019-05-28T09:09:55.888Z,0.8
2019-05-28T09:11:05.504Z,0.8
2019-05-28T09:12:15.083Z,0.7
2019-05-28T09:13:24.668Z,0.9
2019-05-28T09:14:54.235Z,0.8
2019-05-28T09:15:44.847Z,1.3
2019-05-28T09:16:54.461Z,0.9
2019-05-28T09:18:04.207Z,0.5
2019-05-28T09:19:13.622Z,0.8
2019-05-28T09:20:23.210Z,0.8
2019-05-28T09:21:32.818Z,0.9
2019-05-28T09:22:42.437Z,0.7
2019-05-28T09:23:52.013Z,0.8
2019-05-28T09:25:01.630Z,1
2019-05-28T09:26:11.209Z,1
2019-05-28T09:27:20.843Z,1
2019-05-28T09:28:31.354Z,0.8
2019-05-28T09:29:40.982Z,0.9
2019-05-28T09:30:50.559Z,0.8
2019-05-28T09:32:00.206Z,0.9
2019-05-28T09:33:09.847Z,0.9
2019-05-28T09:34:19.425Z,1
2019-05-28T09:35:43.239Z,1
2019-05-28T09:36:39.562Z,1.2
2019-05-28T09:37:49.193Z,1.1
2019-05-28T09:38:58.780Z,1.1
2019-05-28T09:40:08.359Z,1.1
2019-05-28T09:41:17.938Z,1
2019-05-28T09:42:27.526Z,0.9
2019-05-28T09:43:37.158Z,1.2
2019-05-28T09:44:46.755Z,1.2
2019-05-28T09:45:56.346Z,1.2
2019-05-28T09:47:05.948Z,1.1
2019-05-28T09:48:15.594Z,0.9
2019-05-28T09:49:25.207Z,1
2019-05-28T09:50:34.763Z,1.2
2019-05-28T09:51:44.345Z,1.1
2019-05-28T09:52:55.368Z,1.2
2019-05-28T09:54:04.628Z,1
2019-05-28T09:55:14.256Z,1.5
2019-05-28T09:56:23.811Z,1.2
2019-05-28T09:57:46.216Z,1.1
2019-05-28T09:58:44.010Z,1.2
2019-05-28T09:59:53.590Z,1.2
2019-05-28T10:01:03.159Z,1.1
2019-05-28T10:02:12.762Z,1
2019-05-28T10:03:22.409Z,1.3
2019-05-28T10:04:45.110Z,1.3
2019-05-28T10:05:56.963Z,1.5
2019-05-28T10:06:53.143Z,1.2
2019-05-28T10:08:02.704Z,1.6
2019-05-28T10:09:12.339Z,1.1
2019-05-28T10:10:21.932Z,0.9
2019-05-28T10:11:31.528Z,1.4
2019-05-28T10:12:41.109Z,1.2
2019-05-28T10:13:50.745Z,1.1
2019-05-28T10:15:00.323Z,1.3
2019-05-28T10:16:09.919Z,1.2
2019-05-28T10:17:19.486Z,1.3
2019-05-28T10:18:29.057Z,1
2019-05-28T10:19:39.663Z,1.4
2019-05-28T10:20:49.255Z,1
2019-05-28T10:21:58.846Z,1.6
2019-05-28T10:23:08.428Z,1.3
2019-05-28T10:24:18.159Z,1.4
2019-05-28T10:25:27.762Z,1.3
2019-05-28T10:26:37.349Z,1
2019-05-28T10:27:59.849Z,1.5
2019-05-28T10:28:57.485Z,1.2
2019-05-28T10:30:07.136Z,1.9
2019-05-28T10:31:16.717Z,1.4
2019-05-28T10:32:26.293Z,1.2
2019-05-28T10:33:35.881Z,1.7
2019-05-28T10:35:02.482Z,1.6
2019-05-28T10:35:56.046Z,1.7
2019-05-28T10:37:05.637Z,1.1
2019-05-28T10:38:17.120Z,1.6
2019-05-28T10:39:25.797Z,1.7
2019-05-28T10:40:35.406Z,1.5
2019-05-28T10:41:44.988Z,1.3
2019-05-28T10:42:54.566Z,1.3
2019-05-28T10:44:04.164Z,1.9
2019-05-28T10:45:13.784Z,1.7
2019-05-28T10:46:24.397Z,1.4
2019-05-28T10:47:33.941Z,1.6
2019-05-28T10:48:43.514Z,1.7
2019-05-28T10:49:53.135Z,2
2019-05-28T10:51:02.694Z,1.6
2019-05-28T10:52:12.272Z,1.4
2019-05-28T10:53:21.874Z,1.7
2019-05-28T10:54:31.454Z,1.3
2019-05-28T10:55:41.062Z,1.7
2019-05-28T10:56:50.658Z,2
2019-05-28T10:58:00.234Z,1.6
2019-05-28T10:59:09.819Z,1.7
2019-05-28T11:00:19.479Z,1.8
2019-05-28T11:01:29.007Z,1.6
2019-05-28T11:02:38.602Z,1.7
2019-05-28T11:03:48.176Z,1.6
2019-05-28T11:04:57.857Z,2
2019-05-28T11:06:07.425Z,1.5
2019-05-28T11:07:17.015Z,1.4
2019-05-28T11:08:26.602Z,1.7
2019-05-28T11:09:36.187Z,1.7
2019-05-28T11:10:45.806Z,1.4
2019-05-28T11:11:55.385Z,1.7
2019-05-28T11:13:04.972Z,1.6
2019-05-28T11:14:14.552Z,1.5
2019-05-28T11:15:24.239Z,2
2019-05-28T11:16:33.732Z,1.5
2019-05-28T11:17:43.310Z,2
2019-05-28T11:18:52.884Z,1.2
2019-05-28T11:20:02.526Z,1.5
2019-05-28T11:21:12.100Z,1.6
2019-05-28T11:22:21.692Z,2
2019-05-28T11:23:31.281Z,1.5
2019-05-28T11:24:40.866Z,1.7
2019-05-28T11:25:50.486Z,1.4
2019-05-28T11:27:00.078Z,1.8
2019-05-28T11:28:09.668Z,1.7
2019-05-28T11:29:19.254Z,2.3
2019-05-28T11:30:28.883Z,1.5
2019-05-28T11:31:38.455Z,1.9
2019-05-28T11:32:48.040Z,1.8
2019-05-28T11:33:57.622Z,1.5
2019-05-28T11:35:07.216Z,1.6
2019-05-28T11:36:16.826Z,2.2
2019-05-28T11:37:26.408Z,1.9
2019-05-28T11:38:36.000Z,2.1
2019-05-28T11:39:45.938Z,1.8
2019-05-28T11:40:55.545Z,1.5
2019-05-28T11:42:05.122Z,1.5
2019-05-28T11:43:14.722Z,1.4
2019-05-28T11:44:24.320Z,1.3
2019-05-28T11:45:33.957Z,1.5
2019-05-28T11:46:43.591Z,1.6
2019-05-28T11:47:53.158Z,1.1
2019-05-28T11:49:02.736Z,1.3
2019-05-28T11:50:12.312Z,1.3
2019-05-28T11:51:21.950Z,1.6
2019-05-28T11:52:31.521Z,1.4
2019-05-28T11:53:41.083Z,1
2019-05-28T11:54:50.680Z,1.4
2019-05-28T11:56:00.282Z,1
2019-05-28T11:57:09.861Z,1.3
2019-05-28T11:58:19.462Z,1
2019-05-28T11:59:29.029Z,1
2019-05-28T12:00:38.654Z,1.3
2019-05-28T12:01:48.265Z,0.7
2019-05-28T12:02:57.869Z,0.8
2019-05-28T12:04:07.455Z,0.7
2019-05-28T12:05:17.126Z,0.9
2019-05-28T12:06:26.704Z,0.7
2019-05-28T12:07:36.286Z,0.9
2019-05-28T12:08:45.871Z,0.9
2019-05-28T12:09:55.456Z,0.8
2019-05-28T12:11:05.041Z,0.8
2019-05-28T12:12:14.648Z,0.5
2019-05-28T12:13:24.229Z,0.8
2019-05-28T12:14:33.814Z,0.7
2019-05-28T12:15:43.410Z,0.8
2019-05-28T12:16:53.024Z,1
2019-05-28T12:18:02.652Z,0.5
2019-05-28T12:19:12.185Z,0.8
2019-05-28T12:20:21.767Z,1.1
2019-05-28T12:21:31.355Z,1.2
2019-05-28T12:22:40.963Z,1
2019-05-28T12:23:50.544Z,1
2019-05-28T12:25:00.138Z,0.9
2019-05-28T12:26:09.718Z,1.1
2019-05-28T12:27:19.341Z,1
2019-05-28T12:28:37.359Z,0.8
2019-05-28T12:29:51.293Z,0.9
2019-05-28T12:30:50.040Z,0.9
2019-05-28T12:31:59.847Z,0.7
2019-05-28T12:33:09.306Z,0.8
2019-05-28T12:34:18.914Z,0.8
2019-05-28T12:35:30.128Z,0.7
2019-05-28T12:36:39.050Z,0.8
2019-05-28T12:37:50.523Z,0.9
2019-05-28T12:38:59.195Z,0.8
2019-05-28T12:40:08.783Z,0.7
2019-05-28T12:41:18.381Z,0.7
2019-05-28T12:42:27.956Z,0.9
2019-05-28T12:43:37.569Z,0.7
2019-05-28T12:44:47.136Z,1
2019-05-28T12:45:56.727Z,0.7
2019-05-28T12:47:06.329Z,0.8
2019-05-28T12:48:15.925Z,0.7
2019-05-28T12:49:25.517Z,1.1
2019-05-28T12:50:35.103Z,0.8
2019-05-28T12:51:44.698Z,1
2019-05-28T12:52:54.286Z,1
2019-05-28T12:54:03.914Z,0.7
2019-05-28T12:55:13.493Z,0.8
2019-05-28T12:56:23.081Z,0.9
2019-05-28T12:57:32.663Z,0.8
2019-05-28T12:58:43.534Z,0.4
2019-05-28T12:59:52.815Z,0.8
2019-05-28T13:01:02.507Z,0.7
2019-05-28T13:02:12.005Z,1
2019-05-28T13:03:21.738Z,0.7
2019-05-28T13:04:31.325Z,0.6
2019-05-28T13:05:40.911Z,0.6
2019-05-28T13:06:50.492Z,0.8
2019-05-28T13:08:09.978Z,0.9
2019-05-28T13:09:10.677Z,0.9
2019-05-28T13:10:20.264Z,0.5
2019-05-28T13:11:29.851Z,0.4
2019-05-28T13:12:39.461Z,0.9
2019-05-28T13:13:49.060Z,0.4
2019-05-28T13:14:58.666Z,0.6
2019-05-28T13:16:08.249Z,0.6
2019-05-28T13:17:17.834Z,0.6
2019-05-28T13:18:27.486Z,0.7
2019-05-28T13:19:37.063Z,1
2019-05-28T13:20:48.149Z,0.5
2019-05-28T13:21:57.222Z,0.7
2019-05-28T13:23:06.806Z,0.5
2019-05-28T13:24:16.454Z,0.8
2019-05-28T13:25:26.069Z,0.8
2019-05-28T13:26:35.659Z,0.5
2019-05-28T13:27:45.242Z,0.5
2019-05-28T13:28:54.865Z,0.6
2019-05-28T13:30:04.502Z,0.5
2019-05-28T13:31:14.054Z,0.9
2019-05-28T13:32:23.665Z,0.7
2019-05-28T13:33:33.205Z,0.8
2019-05-28T13:34:42.873Z,0.6
2019-05-28T13:35:52.431Z,0.7
2019-05-28T13:37:02.010Z,0.4
2019-05-28T13:38:26.080Z,0.8
2019-05-28T13:39:22.198Z,0.8
2019-05-28T13:40:31.798Z,1.4
2019-05-28T13:41:41.408Z,0.7
2019-05-28T13:42:51.115Z,0.9
2019-05-28T13:44:00.704Z,0.7
2019-05-28T13:45:10.311Z,0.6
2019-05-28T13:46:19.889Z,0.6
2019-05-28T13:47:33.344Z,0.9
2019-05-28T13:48:40.041Z,0.7
2019-05-28T13:49:49.653Z,0.6
2019-05-28T13:50:59.706Z,0.6
2019-05-28T13:52:12.235Z,1
2019-05-28T13:53:19.388Z,0.8
2019-05-28T13:54:29.005Z,0.6
2019-05-28T13:55:38.593Z,0.5
2019-05-28T13:56:48.172Z,0.9
2019-05-28T13:57:57.775Z,0.8
2019-05-28T13:59:07.407Z,0.4
2019-05-28T14:00:16.979Z,0.7
2019-05-28T14:01:26.543Z,0.5
2019-05-28T14:02:36.138Z,0.6
2019-05-28T14:03:45.728Z,0.8
2019-05-28T14:04:55.336Z,0.4
2019-05-28T14:06:04.928Z,1
2019-05-28T14:07:14.521Z,0.7
2019-05-28T14:08:24.093Z,1
2019-05-28T14:09:33.721Z,0.5
2019-05-28T14:10:43.310Z,0.6
2019-05-28T14:11:52.937Z,0.6
2019-05-28T14:13:02.580Z,0.3
2019-05-28T14:14:12.269Z,0.4
2019-05-28T14:15:21.859Z,0.5
2019-05-28T14:16:31.446Z,0.6
2019-05-28T14:17:41.031Z,0.6
2019-05-28T14:18:50.752Z,0.4
2019-05-28T14:20:00.302Z,0.7
2019-05-28T14:21:09.820Z,0.7
2019-05-28T14:22:33.328Z,0.5
2019-05-28T14:23:29.976Z,0.5
2019-05-28T14:24:39.615Z,0.4
2019-05-28T14:25:49.215Z,0.6
2019-05-28T14:26:58.805Z,0.7
2019-05-28T14:28:08.451Z,0.9
2019-05-28T14:29:18.088Z,0.5
2019-05-28T14:30:27.657Z,0.5
2019-05-28T14:31:37.236Z,1.1
2019-05-28T14:32:46.826Z,0.4
2019-05-28T14:33:56.416Z,0.9
2019-05-28T14:35:06.026Z,1
2019-05-28T14:36:15.616Z,0.8
2019-05-28T14:37:25.181Z,0.6
2019-05-28T14:38:34.779Z,0.9
2019-05-28T14:39:44.367Z,0.9
2019-05-28T14:40:54.024Z,1.1
2019-05-28T14:42:03.595Z,1
2019-05-28T14:43:13.180Z,1.1
2019-05-28T14:44:22.767Z,1.2
2019-05-28T14:45:32.453Z,0.8
2019-05-28T14:46:42.036Z,0.7
2019-05-28T14:47:51.625Z,0.9
2019-05-28T14:49:01.208Z,1.2
2019-05-28T14:50:10.841Z,0.8
2019-05-28T14:51:20.416Z,0.7
2019-05-28T14:52:29.996Z,0.9
2019-05-28T14:53:39.590Z,1
2019-05-28T14:54:49.209Z,1.2
2019-05-28T14:55:58.795Z,0.5
2019-05-28T14:57:08.384Z,0.9
2019-05-28T14:58:17.995Z,0.8
2019-05-28T14:59:27.580Z,0.7
2019-05-28T15:00:37.199Z,0.9
2019-05-28T15:01:46.814Z,0.8
2019-05-28T15:02:56.409Z,0.9
2019-05-28T15:04:05.984Z,0.7
2019-05-28T15:05:15.608Z,0.8
2019-05-28T15:06:25.188Z,1
2019-05-28T15:07:34.765Z,0.8
2019-05-28T15:08:44.359Z,0.8
2019-05-28T15:09:53.975Z,1.2
2019-05-28T15:11:03.558Z,0.8
2019-05-28T15:12:13.139Z,1
2019-05-28T15:13:22.792Z,0.8
2019-05-28T15:14:32.371Z,0.8
2019-05-28T15:15:41.973Z,0.9
2019-05-28T15:16:51.552Z,1
2019-05-28T15:18:01.140Z,0.9
2019-05-28T15:19:10.720Z,1.1
2019-05-28T15:20:20.337Z,1.1
2019-05-28T15:21:29.929Z,0.8
2019-05-28T15:22:39.505Z,1
2019-05-28T15:23:49.090Z,1.3
2019-05-28T15:24:58.709Z,1
2019-05-28T15:26:08.292Z,0.7
2019-05-28T15:27:17.873Z,0.8
2019-05-28T15:28:27.453Z,1.1
2019-05-28T15:29:37.045Z,1.3
2019-05-28T15:30:46.656Z,1.1
2019-05-28T15:31:56.247Z,1
2019-05-28T15:33:05.822Z,1.3
2019-05-28T15:34:15.408Z,0.9
2019-05-28T15:35:25.099Z,1
2019-05-28T15:36:34.604Z,1
2019-05-28T15:37:44.195Z,0.9
2019-05-28T15:38:53.771Z,1.1
2019-05-28T15:40:03.424Z,0.9
2019-05-28T15:41:13.012Z,0.9
2019-05-28T15:42:22.618Z,0.8
2019-05-28T15:43:32.198Z,0.8
2019-05-28T15:44:41.786Z,0.8
2019-05-28T15:45:51.395Z,1
2019-05-28T15:47:00.991Z,0.8
2019-05-28T15:48:10.566Z,0.6
2019-05-28T15:49:20.163Z,0.6
2019-05-28T15:50:29.806Z,0.6
2019-05-28T15:51:39.381Z,0.8
2019-05-28T15:52:49.002Z,0.7
2019-05-28T15:53:59.575Z,0.6
2019-05-28T15:55:09.175Z,0.6
2019-05-28T15:56:18.940Z,0.6
2019-05-28T15:57:28.529Z,0.6
2019-05-28T15:58:38.105Z,0.5
2019-05-28T15:59:47.685Z,0.7
2019-05-28T16:00:57.292Z,0.6
2019-05-28T16:02:06.871Z,0.5
2019-05-28T16:03:16.456Z,1
2019-05-28T16:04:26.034Z,0.7
2019-05-28T16:05:35.644Z,0.5
2019-05-28T16:06:45.233Z,0.8
2019-05-28T16:07:54.826Z,1
2019-05-28T16:09:04.408Z,0.8